createdAt,value
2022-09-13T00:01:12.225Z,67.58
2022-09-13T00:03:39.626Z,67.26
2022-09-13T00:06:17.222Z,66.78
2022-09-13T00:08:44.689Z,66.68
2022-09-13T00:11:25.924Z,67.06
2022-09-13T00:13:54.066Z,66.61
2022-09-13T00:16:25.189Z,66.98
2022-09-13T00:18:54.042Z,66.89
2022-09-13T00:21:23.414Z,66.78
2022-09-13T00:23:54.862Z,66.96
2022-09-13T00:26:26.264Z,67.01
2022-09-13T00:28:57.165Z,66.91
2022-09-13T00:31:27.774Z,66.81
2022-09-13T00:33:56.067Z,67.18
2022-09-13T00:36:23.296Z,66.62
2022-09-13T00:38:50.548Z,66.92
2022-09-13T00:41:20.143Z,66.65
2022-09-13T00:43:56.038Z,67.10
2022-09-13T00:46:28.977Z,66.79
2022-09-13T00:49:36.222Z,66.44
2022-09-13T00:52:08.940Z,66.44
2022-09-13T00:54:43.065Z,66.92
2022-09-13T00:57:14.428Z,66.69
2022-09-13T01:00:12.779Z,66.43
2022-09-13T01:03:12.146Z,66.68
2022-09-13T01:05:54.379Z,66.87
2022-09-13T01:08:25.203Z,67.29
2022-09-13T01:10:54.575Z,67.03
2022-09-13T01:13:25.595Z,67.01
2022-09-13T01:15:53.261Z,67.01
2022-09-13T01:18:21.297Z,66.91
2022-09-13T01:21:14.103Z,66.87
2022-09-13T01:24:14.954Z,67.01
2022-09-13T01:27:00.736Z,66.92
2022-09-13T01:30:04.739Z,67.07
2022-09-13T01:32:39.227Z,66.94
2022-09-13T01:36:07.743Z,67.22
2022-09-13T01:39:03.590Z,67.23
2022-09-13T01:41:54.998Z,66.98
2022-09-13T01:45:04.123Z,67.36
2022-09-13T01:48:07.605Z,67.10
2022-09-13T01:50:51.079Z,67.43
2022-09-13T01:53:58.054Z,67.41
2022-09-13T01:56:49.809Z,67.15
2022-09-13T01:59:24.128Z,67.59
2022-09-13T02:02:20.530Z,67.01
2022-09-13T02:04:55.146Z,67.03
2022-09-13T02:07:35.113Z,67.45
2022-09-13T02:10:12.586Z,67.43
2022-09-13T02:12:43.804Z,66.97
2022-09-13T02:15:16.306Z,67.29
2022-09-13T02:18:10.037Z,67.13
2022-09-13T02:20:43.863Z,66.97
2022-09-13T02:23:22.470Z,67.16
2022-09-13T02:25:51.840Z,66.81
2022-09-13T02:28:35.815Z,66.73
2022-09-13T02:31:07.854Z,67.17
2022-09-13T02:33:47.592Z,67.00
2022-09-13T02:36:24.518Z,67.69
2022-09-13T02:39:01.237Z,68.21
2022-09-13T02:41:51.566Z,67.45
2022-09-13T02:44:45.247Z,67.78
2022-09-13T02:47:34.126Z,67.91
2022-09-13T02:50:23.604Z,68.45
2022-09-13T02:53:15.594Z,69.12
2022-09-13T02:56:10.880Z,69.40
2022-09-13T02:59:03.204Z,69.62
2022-09-13T03:01:31.172Z,69.73
2022-09-13T03:03:58.575Z,70.32
2022-09-13T03:06:28.889Z,70.94
2022-09-13T03:08:59.647Z,71.29
2022-09-13T03:11:51.241Z,71.16
2022-09-13T03:15:02.319Z,71.30
2022-09-13T03:17:54.751Z,71.16
2022-09-13T03:21:07.730Z,71.86
2022-09-13T03:24:06.070Z,71.36
2022-09-13T03:26:45.277Z,71.61
2022-09-13T03:29:32.005Z,71.98
2022-09-13T03:32:24.404Z,71.73
2022-09-13T03:35:13.080Z,72.21
2022-09-13T03:38:12.862Z,72.23
2022-09-13T03:40:45.993Z,72.29
2022-09-13T03:43:39.361Z,73.13
2022-09-13T03:46:26.329Z,73.64
2022-09-13T03:48:54.660Z,73.36
2022-09-13T03:51:22.600Z,73.93
2022-09-13T03:54:00.109Z,73.58
2022-09-13T03:56:27.492Z,75.17
2022-09-13T03:58:54.790Z,74.92
2022-09-13T04:01:24.848Z,73.97
2022-09-13T04:03:56.646Z,73.87
2022-09-13T04:06:24.401Z,73.45
2022-09-13T04:08:51.663Z,73.04
2022-09-13T04:11:21.375Z,73.13
2022-09-13T04:13:48.706Z,73.45
2022-09-13T04:16:16.093Z,73.37
2022-09-13T04:18:43.312Z,73.79
2022-09-13T04:21:10.628Z,73.66
2022-09-13T04:23:38.367Z,74.08
2022-09-13T04:26:06.631Z,73.70
2022-09-13T04:28:34.067Z,73.54
2022-09-13T04:31:01.317Z,73.61
2022-09-13T04:33:28.663Z,74.01
2022-09-13T04:35:59.769Z,73.08
2022-09-13T04:38:27.895Z,73.28
2022-09-13T04:40:56.449Z,72.68
2022-09-13T04:43:25.321Z,72.49
2022-09-13T04:45:52.808Z,72.88
2022-09-13T04:48:20.308Z,72.85
2022-09-13T04:50:47.670Z,73.83
2022-09-13T04:53:14.955Z,73.35
2022-09-13T04:55:42.206Z,73.39
2022-09-13T04:58:09.559Z,73.42
2022-09-13T05:00:37.541Z,73.20
2022-09-13T05:03:04.925Z,73.36
2022-09-13T05:05:32.925Z,73.07
2022-09-13T05:08:00.213Z,73.68
2022-09-13T05:10:27.449Z,73.46
2022-09-13T05:12:54.642Z,73.79
2022-09-13T05:15:21.867Z,73.01
2022-09-13T05:17:49.066Z,73.36
2022-09-13T05:20:16.419Z,72.70
2022-09-13T05:22:43.707Z,73.64
2022-09-13T05:25:10.973Z,73.40
2022-09-13T05:27:38.212Z,72.85
2022-09-13T05:30:06.389Z,72.76
2022-09-13T05:32:33.679Z,72.59
2022-09-13T05:35:01.015Z,72.60
2022-09-13T05:37:28.490Z,73.41
2022-09-13T05:40:12.459Z,72.47
2022-09-13T05:42:40.091Z,73.42
2022-09-13T05:45:08.627Z,73.39
2022-09-13T05:47:35.874Z,73.93
2022-09-13T05:50:15.414Z,74.04
2022-09-13T05:52:57.279Z,73.25
2022-09-13T05:55:24.429Z,73.47
2022-09-13T05:57:51.693Z,73.75
2022-09-13T06:00:19.031Z,73.94
2022-09-13T06:02:46.620Z,73.88
2022-09-13T06:05:14.691Z,73.75
2022-09-13T06:07:43.319Z,73.95
2022-09-13T06:10:12.336Z,74.19
2022-09-13T06:12:39.707Z,73.60
2022-09-13T06:15:07.934Z,73.59
2022-09-13T06:17:35.195Z,73.92
2022-09-13T06:20:03.554Z,73.22
2022-09-13T06:22:33.415Z,73.35
2022-09-13T06:25:01.020Z,73.76
2022-09-13T06:27:31.397Z,73.77
2022-09-13T06:29:58.671Z,73.64
2022-09-13T06:32:26.065Z,73.81
2022-09-13T06:34:53.362Z,74.60
2022-09-13T06:37:21.411Z,74.57
2022-09-13T06:39:48.707Z,74.50
2022-09-13T06:42:15.963Z,74.86
2022-09-13T06:44:43.533Z,74.69
2022-09-13T06:47:11.091Z,75.19
2022-09-13T06:49:38.338Z,75.31
2022-09-13T06:52:05.791Z,75.76
2022-09-13T06:54:33.057Z,74.89
2022-09-13T06:57:03.074Z,74.61
2022-09-13T06:59:30.615Z,75.05
2022-09-13T07:01:57.921Z,74.79
2022-09-13T07:04:25.237Z,75.18
2022-09-13T07:06:52.509Z,74.87
2022-09-13T07:09:22.445Z,74.71
2022-09-13T07:11:53.214Z,74.77
2022-09-13T07:14:30.677Z,74.55
2022-09-13T07:16:58.281Z,74.69
2022-09-13T07:19:28.472Z,75.16
2022-09-13T07:21:57.158Z,75.12
2022-09-13T07:24:25.475Z,75.27
2022-09-13T07:26:52.802Z,75.86
2022-09-13T07:29:23.878Z,75.45
2022-09-13T07:31:54.611Z,75.73
2022-09-13T07:34:24.839Z,75.24
2022-09-13T07:36:52.677Z,74.92
2022-09-13T07:39:22.690Z,75.05
2022-09-13T07:41:51.550Z,74.65
2022-09-13T07:44:19.000Z,75.28
2022-09-13T07:46:46.461Z,75.72
2022-09-13T07:49:17.440Z,75.86
2022-09-13T07:51:45.291Z,75.81
2022-09-13T07:54:18.757Z,75.33
2022-09-13T07:56:46.407Z,76.03
2022-09-13T07:59:16.790Z,75.14
2022-09-13T08:01:47.298Z,75.83
2022-09-13T08:04:20.268Z,76.82
2022-09-13T08:06:48.496Z,75.59
2022-09-13T08:09:17.041Z,76.53
2022-09-13T08:11:52.912Z,75.15
2022-09-13T08:14:22.943Z,75.48
2022-09-13T08:16:50.538Z,75.63
2022-09-13T08:19:19.610Z,76.28
2022-09-13T08:21:47.402Z,75.73
2022-09-13T08:24:21.294Z,74.87
2022-09-13T08:26:49.245Z,75.08
2022-09-13T08:29:17.561Z,74.65
2022-09-13T08:31:45.460Z,75.38
2022-09-13T08:34:15.270Z,74.99
2022-09-13T08:36:43.302Z,73.33
2022-09-13T08:39:13.768Z,73.94
2022-09-13T08:41:42.443Z,73.12
2022-09-13T08:44:28.706Z,75.80
2022-09-13T08:47:40.676Z,74.19
2022-09-13T08:50:37.651Z,75.22
2022-09-13T08:53:13.254Z,74.28
2022-09-13T08:56:04.893Z,73.93
2022-09-13T08:59:15.399Z,75.11
2022-09-13T09:02:23.287Z,75.16
2022-09-13T09:05:05.307Z,75.67
2022-09-13T09:07:40.559Z,75.40
2022-09-13T09:10:28.233Z,74.41
2022-09-13T09:13:05.062Z,73.27
2022-09-13T09:15:46.329Z,73.72
2022-09-13T09:18:38.896Z,73.87
2022-09-13T09:21:15.255Z,74.21
2022-09-13T09:23:56.621Z,71.94
2022-09-13T09:26:30.969Z,71.37
2022-09-13T09:29:24.199Z,72.45
2022-09-13T09:32:09.803Z,72.91
2022-09-13T09:34:49.038Z,74.31
2022-09-13T09:37:25.225Z,71.03
2022-09-13T09:40:04.953Z,72.30
2022-09-13T09:42:43.157Z,71.41
2022-09-13T09:45:28.450Z,73.13
2022-09-13T09:47:57.769Z,71.99
2022-09-13T09:50:30.593Z,69.86
2022-09-13T09:53:10.481Z,69.08
2022-09-13T09:56:06.785Z,69.60
2022-09-13T09:58:39.803Z,69.37
2022-09-13T10:01:30.529Z,71.98
2022-09-13T10:04:20.283Z,69.86
2022-09-13T10:06:48.371Z,69.38
2022-09-13T10:09:18.966Z,66.48
2022-09-13T10:12:00.203Z,68.26
2022-09-13T10:14:36.588Z,66.05
2022-09-13T10:17:15.032Z,68.00
2022-09-13T10:19:54.231Z,65.46
2022-09-13T10:22:23.153Z,64.26
2022-09-13T10:24:50.831Z,63.64
2022-09-13T10:27:42.325Z,61.13
2022-09-13T10:30:53.854Z,62.01
2022-09-13T10:33:30.958Z,63.53
2022-09-13T10:36:04.418Z,63.64
2022-09-13T10:38:44.151Z,62.62
2022-09-13T10:41:24.532Z,59.91
2022-09-13T10:44:09.707Z,61.00
2022-09-13T10:46:42.670Z,60.82
2022-09-13T10:49:45.780Z,61.50
2022-09-13T10:52:31.301Z,59.90
2022-09-13T10:55:34.228Z,61.24
2022-09-13T10:58:06.849Z,60.69
2022-09-13T11:00:43.350Z,58.36
2022-09-13T11:03:29.571Z,58.49
2022-09-13T11:06:30.894Z,56.39
2022-09-13T11:09:29.017Z,57.72
2022-09-13T11:12:01.762Z,57.79
2022-09-13T11:14:56.682Z,59.16
2022-09-13T11:17:38.750Z,59.87
2022-09-13T11:20:36.961Z,57.46
2022-09-13T11:23:23.728Z,57.85
2022-09-13T11:26:18.891Z,58.83
2022-09-13T11:29:06.295Z,55.97
2022-09-13T11:32:28.419Z,56.25
2022-09-13T11:35:26.928Z,54.87
2022-09-13T11:38:40.767Z,55.02
2022-09-13T11:41:58.855Z,55.37
2022-09-13T11:45:11.988Z,54.09
2022-09-13T11:47:57.009Z,54.62
2022-09-13T11:50:38.512Z,54.35
2022-09-13T11:53:36.249Z,55.14
2022-09-13T11:56:19.928Z,53.72
2022-09-13T11:58:56.259Z,51.35
2022-09-13T12:01:33.432Z,53.18
2022-09-13T12:04:07.584Z,53.50
2022-09-13T12:06:40.722Z,52.47
2022-09-13T12:09:21.661Z,51.76
2022-09-13T12:12:05.541Z,51.90
2022-09-13T12:14:52.403Z,55.13
2022-09-13T12:17:29.801Z,55.38
2022-09-13T12:20:00.395Z,51.70
2022-09-13T12:22:34.445Z,53.16
2022-09-13T12:25:07.723Z,53.61
2022-09-13T12:28:06.193Z,53.81
2022-09-13T12:31:28.520Z,53.50
2022-09-13T12:33:56.266Z,54.20
2022-09-13T12:37:03.651Z,54.24
2022-09-13T12:40:04.122Z,52.84
2022-09-13T12:42:38.838Z,53.68
2022-09-13T12:45:55.407Z,54.02
2022-09-13T12:48:39.926Z,54.69
2022-09-13T12:51:26.489Z,54.22
2022-09-13T12:54:05.764Z,52.50
2022-09-13T12:57:09.881Z,52.36
2022-09-13T12:59:57.815Z,53.75
2022-09-13T13:02:54.449Z,54.29
2022-09-13T13:05:32.079Z,53.76
2022-09-13T13:08:04.758Z,53.90
2022-09-13T13:10:38.829Z,51.75
2022-09-13T13:13:13.276Z,52.58
2022-09-13T13:15:47.804Z,53.50
2022-09-13T13:18:32.507Z,53.31
2022-09-13T13:20:59.619Z,52.99
2022-09-13T13:23:35.708Z,52.93
2022-09-13T13:26:21.574Z,51.81
2022-09-13T13:29:03.762Z,52.02
2022-09-13T13:31:30.952Z,53.27
2022-09-13T13:34:09.949Z,53.51
2022-09-13T13:36:45.701Z,53.13
2022-09-13T13:39:33.685Z,52.47
2022-09-13T13:42:13.661Z,52.44
2022-09-13T13:44:43.888Z,52.45
2022-09-13T13:47:19.785Z,51.52
2022-09-13T13:50:14.015Z,51.91
2022-09-13T13:52:55.555Z,52.42
2022-09-13T13:55:47.221Z,52.40
2022-09-13T13:58:33.329Z,52.43
2022-09-13T14:01:03.127Z,52.66
2022-09-13T14:04:10.191Z,52.10
2022-09-13T14:07:06.113Z,52.15
2022-09-13T14:10:03.378Z,52.79
2022-09-13T14:12:51.251Z,52.20
2022-09-13T14:15:32.171Z,52.58
2022-09-13T14:18:57.609Z,53.18
2022-09-13T14:21:27.265Z,52.89
2022-09-13T14:24:24.831Z,51.89
2022-09-13T14:27:03.927Z,52.70
2022-09-13T14:29:33.468Z,53.16
2022-09-13T14:32:07.201Z,52.45
2022-09-13T14:34:38.808Z,52.72
2022-09-13T14:37:18.160Z,52.16
2022-09-13T14:40:26.782Z,51.46
2022-09-13T14:42:56.303Z,52.09
2022-09-13T14:45:38.649Z,52.26
2022-09-13T14:48:18.507Z,51.50
2022-09-13T14:50:56.766Z,51.60
2022-09-13T14:53:31.551Z,51.79
2022-09-13T14:56:12.649Z,51.68
2022-09-13T14:58:47.400Z,51.31
2022-09-13T15:01:22.933Z,52.16
2022-09-13T15:03:51.753Z,52.20
2022-09-13T15:06:31.662Z,51.92
2022-09-13T15:09:27.731Z,51.88
2022-09-13T15:12:01.156Z,52.42
2022-09-13T15:14:39.512Z,51.96
2022-09-13T15:17:08.472Z,51.70
2022-09-13T15:20:02.204Z,52.52
2022-09-13T15:22:33.429Z,51.68
2022-09-13T15:25:03.043Z,52.03
2022-09-13T15:27:44.125Z,52.29
2022-09-13T15:30:25.961Z,52.23
2022-09-13T15:33:12.164Z,52.71
2022-09-13T15:35:45.161Z,52.77
2022-09-13T15:38:26.066Z,52.42
2022-09-13T15:41:03.898Z,51.67
2022-09-13T15:43:31.472Z,52.74
2022-09-13T15:46:01.870Z,53.01
2022-09-13T15:48:35.857Z,53.27
2022-09-13T15:51:14.740Z,53.45
2022-09-13T15:53:45.320Z,53.63
2022-09-13T15:56:22.693Z,54.26
2022-09-13T15:58:50.419Z,55.03
2022-09-13T16:01:18.433Z,55.11
2022-09-13T16:03:46.019Z,56.05
2022-09-13T16:06:13.380Z,55.19
2022-09-13T16:08:41.139Z,55.41
2022-09-13T16:11:08.602Z,55.51
2022-09-13T16:13:36.648Z,55.54
2022-09-13T16:16:05.247Z,56.18
2022-09-13T16:18:33.080Z,56.39
2022-09-13T16:21:00.333Z,56.82
2022-09-13T16:23:27.630Z,56.85
2022-09-13T16:25:58.268Z,56.75
2022-09-13T16:28:25.697Z,56.98
2022-09-13T16:30:54.051Z,57.42
2022-09-13T16:33:21.442Z,56.97
2022-09-13T16:35:48.803Z,57.22
2022-09-13T16:38:16.377Z,57.41
2022-09-13T16:40:45.259Z,57.20
2022-09-13T16:43:12.963Z,57.03
2022-09-13T16:45:42.207Z,57.36
2022-09-13T16:48:10.293Z,58.01
2022-09-13T16:50:41.014Z,58.14
2022-09-13T16:53:09.694Z,58.73
2022-09-13T16:55:37.251Z,58.58
2022-09-13T16:58:04.684Z,58.71
2022-09-13T17:00:32.013Z,59.00
2022-09-13T17:02:59.521Z,59.89
2022-09-13T17:05:26.962Z,59.97
2022-09-13T17:07:54.345Z,60.45
2022-09-13T17:10:22.448Z,60.40
2022-09-13T17:12:50.283Z,60.45
2022-09-13T17:15:18.030Z,61.22
2022-09-13T17:17:45.363Z,61.39
2022-09-13T17:20:13.678Z,62.00
2022-09-13T17:22:41.626Z,61.24
2022-09-13T17:25:09.814Z,61.51
2022-09-13T17:27:37.122Z,61.74
2022-09-13T17:30:06.763Z,61.75
2022-09-13T17:32:34.109Z,62.12
2022-09-13T17:35:01.712Z,61.01
2022-09-13T17:37:29.041Z,61.78
2022-09-13T17:39:56.346Z,61.21
2022-09-13T17:42:23.764Z,61.85
2022-09-13T17:44:51.380Z,61.14
2022-09-13T17:47:18.646Z,62.15
2022-09-13T17:49:47.193Z,62.03
2022-09-13T17:52:14.452Z,62.66
2022-09-13T17:54:41.658Z,62.86
2022-09-13T17:57:11.945Z,62.48
2022-09-13T17:59:39.370Z,62.60
2022-09-13T18:02:07.331Z,62.83
2022-09-13T18:04:34.648Z,62.09
2022-09-13T18:07:01.905Z,62.38
2022-09-13T18:09:29.104Z,62.46
2022-09-13T18:11:56.563Z,62.77
2022-09-13T18:14:26.568Z,63.01
2022-09-13T18:16:55.951Z,63.54
2022-09-13T18:19:44.240Z,63.73
2022-09-13T18:22:11.763Z,64.61
2022-09-13T18:24:38.968Z,63.07
2022-09-13T18:27:06.325Z,63.80
2022-09-13T18:29:33.635Z,63.12
2022-09-13T18:32:01.091Z,63.33
2022-09-13T18:34:28.392Z,63.57
2022-09-13T18:36:55.660Z,63.39
2022-09-13T18:39:23.426Z,64.39
2022-09-13T18:41:50.684Z,63.37
2022-09-13T18:44:19.113Z,63.61
2022-09-13T18:46:47.465Z,63.54
2022-09-13T18:49:15.259Z,63.13
2022-09-13T18:51:44.838Z,63.06
2022-09-13T18:54:16.217Z,63.40
2022-09-13T18:56:44.237Z,63.49
2022-09-13T18:59:11.726Z,63.78
2022-09-13T19:01:42.535Z,64.29
2022-09-13T19:04:15.463Z,62.96
2022-09-13T19:06:46.114Z,63.98
2022-09-13T19:09:14.615Z,64.39
2022-09-13T19:11:47.778Z,64.20
2022-09-13T19:14:27.688Z,63.66
2022-09-13T19:16:58.081Z,63.71
2022-09-13T19:19:25.442Z,64.54
2022-09-13T19:21:52.726Z,64.51
2022-09-13T19:24:21.228Z,63.60
2022-09-13T19:26:51.539Z,64.26
2022-09-13T19:29:22.037Z,65.10
2022-09-13T19:31:51.544Z,65.75
2022-09-13T19:34:21.869Z,65.11
2022-09-13T19:36:52.572Z,65.27
2022-09-13T19:39:19.950Z,65.68
2022-09-13T19:41:47.253Z,65.80
2022-09-13T19:44:15.011Z,66.01
2022-09-13T19:46:43.693Z,66.21
2022-09-13T19:49:16.965Z,66.12
2022-09-13T19:51:50.078Z,67.49
2022-09-13T19:54:19.469Z,66.85
2022-09-13T19:56:47.037Z,67.17
2022-09-13T19:59:17.006Z,66.97
2022-09-13T20:01:46.652Z,67.00
2022-09-13T20:04:18.169Z,66.68
2022-09-13T20:06:49.299Z,66.05
2022-09-13T20:09:19.184Z,66.45
2022-09-13T20:11:48.563Z,66.82
2022-09-13T20:14:18.933Z,66.72
2022-09-13T20:16:47.481Z,66.81
2022-09-13T20:22:07.842Z,67.98
2022-09-13T20:24:35.130Z,68.10
2022-09-13T20:27:02.399Z,68.18
2022-09-13T20:29:29.788Z,68.63
2022-09-13T20:31:57.189Z,68.56
2022-09-13T20:34:24.379Z,68.53
2022-09-13T20:36:51.581Z,68.92
2022-09-13T20:39:18.833Z,68.84
2022-09-13T20:41:49.355Z,69.04
2022-09-13T20:44:16.755Z,69.52
2022-09-13T20:46:44.123Z,69.69
2022-09-13T20:49:11.935Z,69.69
2022-09-13T20:51:39.658Z,70.12
2022-09-13T20:54:08.362Z,69.63
2022-09-13T20:56:36.274Z,68.71
2022-09-13T20:59:04.811Z,68.13
2022-09-13T21:01:33.556Z,68.84
2022-09-13T21:04:01.747Z,68.76
2022-09-13T21:06:32.238Z,69.50
2022-09-13T21:09:00.197Z,69.43
2022-09-13T21:11:34.841Z,69.59
2022-09-13T21:14:05.743Z,69.99
2022-09-13T21:16:37.675Z,70.23
2022-09-13T21:19:06.249Z,70.18
2022-09-13T21:21:37.320Z,70.41
2022-09-13T21:24:08.714Z,70.45
2022-09-13T21:26:39.831Z,70.45
2022-09-13T21:29:07.097Z,70.27
2022-09-13T21:31:34.446Z,70.45
2022-09-13T21:34:08.634Z,70.43
2022-09-13T21:36:36.399Z,70.61
2022-09-13T21:39:05.687Z,70.55
2022-09-13T21:41:34.006Z,70.72
2022-09-13T21:44:01.732Z,70.42
2022-09-13T21:46:35.360Z,70.52
2022-09-13T21:49:06.866Z,70.45
2022-09-13T21:51:43.324Z,70.81
2022-09-13T21:54:14.311Z,70.57
2022-09-13T21:56:50.167Z,70.97
2022-09-13T21:59:19.844Z,70.73
2022-09-13T22:01:53.160Z,70.30
2022-09-13T22:04:27.397Z,70.62
2022-09-13T22:06:55.481Z,70.94
2022-09-13T22:09:27.036Z,71.18
2022-09-13T22:11:54.905Z,71.13
2022-09-13T22:14:22.834Z,71.41
2022-09-13T22:16:52.937Z,71.04
2022-09-13T22:19:24.864Z,70.83
2022-09-13T22:21:56.759Z,70.54
2022-09-13T22:24:26.993Z,70.83
2022-09-13T22:26:56.585Z,70.98
2022-09-13T22:29:24.938Z,71.22
2022-09-13T22:31:53.203Z,71.47
2022-09-13T22:34:24.197Z,70.91
2022-09-13T22:36:53.373Z,71.25
2022-09-13T22:39:20.639Z,71.15
2022-09-13T22:41:47.921Z,70.80
2022-09-13T22:44:15.588Z,71.04
2022-09-13T22:46:45.218Z,70.96
2022-09-13T22:49:19.289Z,70.76
2022-09-13T22:51:47.756Z,70.71
2022-09-13T22:54:16.555Z,70.46
2022-09-13T22:56:44.360Z,70.74
2022-09-13T22:59:21.097Z,70.71
2022-09-13T23:01:49.337Z,70.93
2022-09-13T23:04:17.287Z,71.12
2022-09-13T23:06:44.833Z,71.12
2022-09-13T23:09:17.852Z,71.88
2022-09-13T23:11:46.289Z,71.45
2022-09-13T23:14:16.590Z,71.84
2022-09-13T23:16:50.442Z,72.09
2022-09-13T23:19:20.365Z,71.85
2022-09-13T23:21:47.544Z,71.73
2022-09-13T23:24:18.010Z,71.71
2022-09-13T23:26:46.725Z,71.31
2022-09-13T23:29:18.844Z,71.27
2022-09-13T23:31:47.478Z,71.46
2022-09-13T23:34:15.775Z,71.07
2022-09-13T23:36:44.584Z,70.72
2022-09-13T23:39:18.707Z,70.72
2022-09-13T23:41:47.906Z,71.23
2022-09-13T23:44:15.942Z,70.93
2022-09-13T23:46:44.119Z,70.94
2022-09-13T23:49:11.684Z,70.49
2022-09-13T23:51:39.005Z,70.70
2022-09-13T23:54:06.562Z,70.91
2022-09-13T23:56:35.033Z,70.78
2022-09-13T23:59:05.073Z,71.09
